Antioch, TX

8:16 AM CDT on August 31, 2015 (GMT -0500)
JOAQUIN Amateur Radio W5RYM | | Change Station
CLOSE
Current Station
Personal Weather Station
Location: Joaquin, TX
Elevation: 283 ft
Nearby Weather Stations

Elev 283 ft 31.91 °N, 94.08 °W | Updated 5 seconds ago

Partly Cloudy
Partly Cloudy
72.4 °F
Feels Like 72.4 °F
N
2.6
Wind Variable Wind from SSW
Gusts 4.0 mph

Today
High -- | Low -- °F
--% Chance of Precip.
Yesterday
High -- | Low -- °F
Precip. -- in
6:51 AM 7:41 PM
Waning Gibbous, 95% visible
Pressure 30.03 in
Visibility 9.0 miles
Clouds Clear
Dew Point 69 °F
Humidity 90%
Rainfall 0.00 in
Snow Depth Not available.
UV 0 out of 12
Pollen 8.50 out of 12
Air Quality Not available.
Flu Activity Not available.
METAR KOCH 311215Z AUTO 00000KT 9SM CLR 19/18 A3003 RMK AO1
Pressure 30.03 in
Visibility 9.0 miles
Clouds Clear
Dew Point 69 °F
Humidity 90%
Rainfall 0.00 in
Snow Depth Not available.
UV 0 out of 12
Pollen 8.50 out of 12
Air Quality Not available.
Flu Activity Not available.
METAR KOCH 311215Z AUTO 00000KT 9SM CLR 19/18 A3003 RMK AO1

10-Day Weather Forecast

×

Almanac

Astronomy

Aug. 31, 2015 Rise Set
Actual Time
Civil Twilight
Nautical Twilight
Astronomical Twilight
Moon
Length of Visible Light
Length of Day
Tomorrow will be .
, % of the Moon is Illuminated

Today's Extremes

State Highs State Lows

Community

WunderPhotos

Upload Photos

1,851,226 photos uploaded!

WunderBlogs® & News

Nearby

Air Quality

  Air Quality AQ Index Pollutant
Not available.

Snow Depth

Station Depth Elevation

Earthquake Activity

City Distance Mag. Time & Date
Minimum magnitude displayed is 2.5.

Coastal Water Temperatures

Place Temperature

Stations

Nearby Weather Stations

Station Location Temp. Windchill Dew Point Humidity Wind Precip. Elev Updated Type